Time;durP1;ratioP1;P1;durP2;ratioP2;P2;SDS_P1;SDS_P2;PMS_P1;PMS_P2;Temp;Humidity;BMP_temperature;BMP_pressure;BME280_temperature;BME280_humidity;BME280_pressure;Samples;Min_cycle;Max_cycle;Signal;HPM_P1;HPM_P2
2023/07/23 00:01:33;;;;;;;5.50;2.85;;;17.40;99.90;;;;;;4978345;28;20030;-63
2023/07/23 00:03:58;;;;;;;5.55;3.10;;;17.50;99.90;;;;;;4976167;28;20038;-63
2023/07/23 00:06:24;;;;;;;5.35;3.20;;;17.40;99.90;;;;;;4975270;28;20366;-64
2023/07/23 00:08:50;;;;;;;6.00;3.28;;;17.50;99.90;;;;;;4947980;28;20058;-63
2023/07/23 00:11:15;;;;;;;4.82;2.67;;;17.50;99.90;;;;;;4981921;28;20112;-62
2023/07/23 00:13:41;;;;;;;4.53;2.80;;;17.50;99.90;;;;;;4977228;28;20054;-63
2023/07/23 00:16:06;;;;;;;5.55;2.60;;;17.50;99.90;;;;;;4984690;28;20037;-63
2023/07/23 00:18:32;;;;;;;6.10;2.60;;;17.50;99.90;;;;;;4969246;28;20057;-63
2023/07/23 00:20:57;;;;;;;7.63;2.97;;;17.40;99.90;;;;;;4979366;28;20500;-63
2023/07/23 00:23:23;;;;;;;5.03;2.53;;;17.40;99.90;;;;;;4978661;28;20034;-63
2023/07/23 00:25:48;;;;;;;3.90;2.58;;;17.50;99.90;;;;;;4964295;28;20111;-63
2023/07/23 00:28:14;;;;;;;5.82;3.08;;;17.50;99.90;;;;;;4981735;28;20049;-63
2023/07/23 00:30:40;;;;;;;7.68;3.28;;;17.40;99.90;;;;;;4965351;28;20031;-63
2023/07/23 00:33:06;;;;;;;4.88;2.67;;;17.40;99.90;;;;;;4979105;28;20030;-63
2023/07/23 00:35:32;;;;;;;4.80;2.72;;;17.50;99.90;;;;;;4955619;28;20049;-63
2023/07/23 00:37:57;;;;;;;6.55;3.35;;;17.50;99.90;;;;;;4978816;28;20030;-64
2023/07/23 00:40:23;;;;;;;7.50;2.92;;;17.40;99.90;;;;;;4977627;28;20072;-65
2023/07/23 00:42:48;;;;;;;6.32;3.03;;;17.40;99.90;;;;;;4959290;28;20035;-63
2023/07/23 00:45:14;;;;;;;7.53;2.65;;;17.40;99.90;;;;;;4957717;28;20030;-63
2023/07/23 00:47:42;;;;;;;5.32;2.80;;;17.40;99.90;;;;;;4980619;28;20035;-65
2023/07/23 00:50:08;;;;;;;5.72;2.72;;;17.50;99.90;;;;;;4981064;28;20361;-61
2023/07/23 00:52:34;;;;;;;5.00;2.70;;;17.50;99.90;;;;;;4983397;28;20030;-63
2023/07/23 00:55:01;;;;;;;10.18;3.22;;;17.40;99.90;;;;;;4956255;28;20050;-62
2023/07/23 00:57:26;;;;;;;5.20;2.85;;;17.40;99.90;;;;;;4990788;28;20062;-64
2023/07/23 00:59:56;;;;;;;5.57;3.05;;;17.40;99.90;;;;;;4990537;28;20105;-64
2023/07/23 01:02:22;;;;;;;5.63;2.95;;;17.40;99.90;;;;;;4989393;28;20045;-63
2023/07/23 01:04:48;;;;;;;6.40;3.40;;;17.40;99.90;;;;;;4986136;28;20038;-64
2023/07/23 01:07:14;;;;;;;8.30;3.45;;;17.40;99.90;;;;;;4979374;28;20097;-63
2023/07/23 01:09:40;;;;;;;6.65;3.45;;;17.40;99.90;;;;;;4972291;28;20054;-62
2023/07/23 01:12:07;;;;;;;9.50;3.17;;;17.30;99.90;;;;;;4989932;28;20104;-61
2023/07/23 01:14:33;;;;;;;4.97;2.50;;;17.30;99.90;;;;;;4978078;28;20029;-64
2023/07/23 01:16:59;;;;;;;8.10;3.08;;;17.20;99.90;;;;;;4967418;28;20026;-62
2023/07/23 01:19:26;;;;;;;5.55;3.03;;;17.20;99.90;;;;;;4979726;28;20411;-63
2023/07/23 01:22:00;;;;;;;7.60;3.33;;;17.20;99.90;;;;;;4988326;28;20026;-65
2023/07/23 01:24:25;;;;;;;5.57;2.70;;;17.10;99.90;;;;;;4990419;28;20101;-64
2023/07/23 01:26:51;;;;;;;5.15;2.92;;;17.00;99.90;;;;;;4991333;28;20499;-63
2023/07/23 01:29:17;;;;;;;4.57;2.47;;;17.00;99.90;;;;;;4989194;28;20026;-63
2023/07/23 01:31:42;;;;;;;5.57;3.28;;;17.00;99.90;;;;;;4990888;28;20076;-64
2023/07/23 01:34:08;;;;;;;5.35;3.10;;;17.00;99.90;;;;;;4994163;28;20077;-64
2023/07/23 01:36:34;;;;;;;9.27;3.33;;;17.00;99.90;;;;;;4945784;28;20482;-63
2023/07/23 01:38:59;;;;;;;5.07;3.15;;;16.90;99.90;;;;;;4990328;28;20030;-63
2023/07/23 01:41:25;;;;;;;7.28;3.05;;;16.90;99.90;;;;;;4990058;28;20096;-63
2023/07/23 01:43:51;;;;;;;7.65;3.30;;;16.90;99.90;;;;;;4984762;28;20062;-63
2023/07/23 01:46:16;;;;;;;5.97;3.45;;;16.90;99.90;;;;;;4992794;28;20061;-64
2023/07/23 01:48:42;;;;;;;6.53;3.03;;;16.80;99.90;;;;;;4987248;28;20395;-64
2023/07/23 01:51:10;;;;;;;5.60;3.25;;;16.80;99.90;;;;;;4991618;28;20057;-63
2023/07/23 01:53:35;;;;;;;5.15;3.30;;;16.80;99.90;;;;;;4992173;28;20042;-63
2023/07/23 01:56:01;;;;;;;4.72;3.20;;;16.70;99.90;;;;;;4988362;28;20126;-63
2023/07/23 01:58:26;;;;;;;8.63;3.67;;;16.70;99.90;;;;;;4987263;28;20406;-63
2023/07/23 02:01:00;;;;;;;6.55;3.58;;;16.70;99.90;;;;;;4972089;28;20788;-62
2023/07/23 02:03:26;;;;;;;6.43;3.22;;;16.60;99.90;;;;;;4988541;28;20030;-62
2023/07/23 02:05:59;;;;;;;8.00;3.40;;;16.60;99.90;;;;;;4986861;28;20088;-64
2023/07/23 02:08:24;;;;;;;5.07;2.58;;;16.60;99.90;;;;;;4981622;28;20030;-63
2023/07/23 02:10:50;;;;;;;6.82;3.53;;;16.60;99.90;;;;;;4987545;28;20034;-63
2023/07/23 02:13:16;;;;;;;9.38;3.58;;;16.60;99.90;;;;;;4990616;28;20034;-62
2023/07/23 02:15:41;;;;;;;5.15;2.97;;;16.50;99.90;;;;;;4986148;28;20037;-62
2023/07/23 02:18:07;;;;;;;5.45;2.75;;;16.50;99.90;;;;;;4989372;28;20377;-61
2023/07/23 02:20:33;;;;;;;6.15;3.30;;;16.50;99.90;;;;;;4993843;28;20038;-62
2023/07/23 02:22:58;;;;;;;7.30;3.22;;;16.40;99.90;;;;;;4971222;28;20030;-64
2023/07/23 02:25:24;;;;;;;6.47;3.63;;;16.40;99.90;;;;;;4989246;28;20403;-64
2023/07/23 02:27:50;;;;;;;7.53;2.70;;;16.30;99.90;;;;;;4989116;28;20041;-63
2023/07/23 02:30:15;;;;;;;4.88;3.15;;;16.30;99.90;;;;;;4993607;28;20022;-63
2023/07/23 02:32:41;;;;;;;6.72;2.75;;;16.30;99.90;;;;;;4989600;28;20471;-63
2023/07/23 02:35:07;;;;;;;5.82;3.28;;;16.30;99.90;;;;;;4980697;28;20504;-64
2023/07/23 02:37:33;;;;;;;7.03;3.50;;;16.30;99.90;;;;;;4949025;28;20054;-64
2023/07/23 02:39:58;;;;;;;6.60;3.30;;;16.30;99.90;;;;;;4993144;28;20037;-63
2023/07/23 02:42:24;;;;;;;11.85;3.25;;;16.40;99.90;;;;;;4991641;28;20035;-62
2023/07/23 02:44:50;;;;;;;4.82;3.25;;;16.40;99.90;;;;;;4988690;28;20395;-63
2023/07/23 02:47:15;;;;;;;4.25;2.70;;;16.40;99.90;;;;;;4981657;28;20114;-64
2023/07/23 02:49:41;;;;;;;12.55;3.80;;;16.40;99.90;;;;;;4988727;28;20535;-63
2023/07/23 02:52:06;;;;;;;5.20;2.92;;;16.50;99.90;;;;;;4969686;28;20030;-60
2023/07/23 02:54:33;;;;;;;4.85;2.90;;;16.50;99.90;;;;;;4992814;28;20483;-63
2023/07/23 02:56:59;;;;;;;9.82;3.00;;;16.50;99.90;;;;;;4989027;28;20419;-62
2023/07/23 02:59:24;;;;;;;12.07;2.83;;;16.50;99.90;;;;;;4988461;28;20035;-57
2023/07/23 03:01:50;;;;;;;8.85;3.50;;;16.50;99.90;;;;;;4987542;28;20023;-63
2023/07/23 03:04:15;;;;;;;7.07;3.85;;;16.50;99.90;;;;;;4988694;28;20507;-62
2023/07/23 03:06:41;;;;;;;7.60;2.85;;;16.50;99.90;;;;;;4988055;28;20692;-63
2023/07/23 03:09:06;;;;;;;5.47;2.80;;;16.50;99.90;;;;;;4985391;28;20118;-62
2023/07/23 03:11:32;;;;;;;9.73;3.13;;;16.50;99.90;;;;;;4984590;28;20046;-63
2023/07/23 03:13:57;;;;;;;5.55;2.95;;;16.50;99.90;;;;;;4990617;28;20472;-62
2023/07/23 03:16:23;;;;;;;6.18;3.42;;;16.50;99.90;;;;;;4992018;28;20034;-62
2023/07/23 03:18:49;;;;;;;5.05;3.30;;;16.50;99.90;;;;;;4987367;28;20582;-63
2023/07/23 03:21:14;;;;;;;8.15;3.00;;;16.50;99.90;;;;;;4986260;28;20030;-63
2023/07/23 03:23:40;;;;;;;4.95;3.20;;;16.50;99.90;;;;;;4989402;28;20078;-63
2023/07/23 03:26:06;;;;;;;4.03;2.67;;;16.60;99.90;;;;;;4988813;28;20035;-61
2023/07/23 03:28:31;;;;;;;5.88;3.35;;;16.60;99.90;;;;;;4989331;28;20535;-63
2023/07/23 03:30:58;;;;;;;7.97;3.42;;;16.60;99.90;;;;;;4969715;28;20061;-63
2023/07/23 03:33:23;;;;;;;7.32;2.85;;;16.60;99.90;;;;;;4989909;28;20595;-63
2023/07/23 03:35:49;;;;;;;7.82;3.58;;;16.70;99.90;;;;;;4946772;28;20117;-64
2023/07/23 03:38:14;;;;;;;5.10;2.85;;;16.70;99.90;;;;;;4960853;28;20031;-63
2023/07/23 03:40:40;;;;;;;7.28;2.67;;;16.70;99.90;;;;;;4987745;28;20018;-62
2023/07/23 03:43:06;;;;;;;5.78;2.95;;;16.70;99.90;;;;;;4972622;28;20464;-65
2023/07/23 03:45:31;;;;;;;4.50;2.47;;;16.80;99.90;;;;;;4990322;28;20022;-63
2023/07/23 03:47:57;;;;;;;4.03;2.60;;;16.90;99.90;;;;;;4988975;28;20029;-63
2023/07/23 03:50:22;;;;;;;7.57;3.00;;;16.90;99.90;;;;;;4988051;28;20030;-66
2023/07/23 03:52:48;;;;;;;4.88;2.97;;;17.00;99.90;;;;;;4987182;28;20030;-63
2023/07/23 03:55:14;;;;;;;5.10;3.05;;;17.00;99.90;;;;;;4987036;28;20030;-65
2023/07/23 03:57:39;;;;;;;5.57;3.13;;;17.00;99.90;;;;;;4988024;28;20081;-63
2023/07/23 04:00:06;;;;;;;4.80;2.55;;;17.10;99.90;;;;;;4968103;28;20022;-61
2023/07/23 04:02:31;;;;;;;5.65;3.05;;;17.10;99.90;;;;;;4980794;28;20444;-63
2023/07/23 04:04:57;;;;;;;6.43;2.80;;;17.10;99.90;;;;;;4984887;28;20121;-64
2023/07/23 04:07:22;;;;;;;4.88;2.63;;;17.20;99.90;;;;;;4986376;28;20113;-64
2023/07/23 04:09:48;;;;;;;5.25;3.00;;;17.30;99.90;;;;;;4968182;28;20518;-64
2023/07/23 04:12:13;;;;;;;5.93;2.80;;;17.30;99.90;;;;;;4988106;28;20104;-63
2023/07/23 04:14:42;;;;;;;5.35;2.33;;;17.40;99.50;;;;;;4981409;28;20058;-62
2023/07/23 04:17:11;;;;;;;5.10;2.63;;;17.50;99.60;;;;;;4988234;28;20070;-63
2023/07/23 04:19:37;;;;;;;6.40;2.40;;;17.70;99.30;;;;;;4988094;28;20031;-62
2023/07/23 04:22:03;;;;;;;3.78;2.50;;;17.70;99.10;;;;;;4988374;28;20027;-65
2023/07/23 04:24:29;;;;;;;4.28;2.72;;;17.70;99.10;;;;;;4984312;28;20482;-63
2023/07/23 04:26:55;;;;;;;4.53;2.67;;;17.80;99.10;;;;;;4985189;28;20026;-63
2023/07/23 04:29:20;;;;;;;15.30;3.72;;;17.80;99.40;;;;;;4962605;28;20035;-64
2023/07/23 04:31:46;;;;;;;6.45;3.45;;;17.90;98.40;;;;;;4985077;28;20451;-63
2023/07/23 04:34:11;;;;;;;3.92;2.53;;;17.90;98.30;;;;;;4976158;28;20687;-63
2023/07/23 04:36:37;;;;;;;4.43;2.92;;;18.00;98.50;;;;;;4963897;28;20050;-64
2023/07/23 04:39:03;;;;;;;5.03;2.83;;;18.00;97.90;;;;;;4954165;28;20362;-64
2023/07/23 04:41:29;;;;;;;5.70;3.35;;;18.10;98.00;;;;;;4970104;28;20033;-63
2023/07/23 04:43:55;;;;;;;4.80;2.30;;;18.20;97.70;;;;;;4982194;28;20153;-62
2023/07/23 04:46:21;;;;;;;3.95;2.63;;;18.20;97.80;;;;;;4987216;28;20116;-65
2023/07/23 04:48:47;;;;;;;6.72;3.20;;;18.30;97.70;;;;;;4987048;28;20491;-63
2023/07/23 04:51:12;;;;;;;4.97;3.10;;;18.30;97.30;;;;;;4982633;28;20073;-64
2023/07/23 04:53:38;;;;;;;4.28;2.75;;;18.30;97.50;;;;;;4987781;28;20082;-65
2023/07/23 04:56:05;;;;;;;4.18;2.55;;;18.40;96.90;;;;;;4986357;28;20052;-64
2023/07/23 04:58:31;;;;;;;6.05;3.00;;;18.50;97.10;;;;;;4968622;28;20027;-64
2023/07/23 05:00:58;;;;;;;5.55;3.50;;;18.60;96.90;;;;;;4985354;28;20545;-66
2023/07/23 05:03:24;;;;;;;6.15;2.97;;;18.70;96.10;;;;;;4988138;28;20109;-64
2023/07/23 05:05:51;;;;;;;4.85;3.00;;;18.70;96.60;;;;;;4983932;28;20177;-63
2023/07/23 05:08:20;;;;;;;7.30;3.17;;;18.80;96.50;;;;;;4985584;28;20140;-65
2023/07/23 05:10:47;;;;;;;5.78;3.10;;;18.90;96.10;;;;;;4984837;28;20023;-63
2023/07/23 05:13:13;;;;;;;5.45;2.55;;;18.90;96.20;;;;;;4982818;28;20105;-65
2023/07/23 05:15:39;;;;;;;3.63;2.58;;;19.00;96.30;;;;;;4984202;28;20562;-65
2023/07/23 05:18:05;;;;;;;5.45;2.75;;;19.10;95.80;;;;;;4985906;28;20035;-64
2023/07/23 05:20:31;;;;;;;5.47;2.33;;;19.20;95.70;;;;;;4985268;28;20039;-65
2023/07/23 05:22:56;;;;;;;3.60;2.28;;;19.20;95.80;;;;;;4967424;28;20035;-64
2023/07/23 05:25:22;;;;;;;3.63;2.30;;;19.30;95.60;;;;;;4987721;28;20044;-62
2023/07/23 05:27:49;;;;;;;4.03;2.63;;;19.20;95.40;;;;;;4986411;28;20046;-64
2023/07/23 05:30:16;;;;;;;4.20;2.65;;;19.30;95.50;;;;;;4983243;28;20029;-65
2023/07/23 05:32:42;;;;;;;6.38;2.50;;;19.40;95.70;;;;;;4990439;28;20023;-65
2023/07/23 05:35:07;;;;;;;5.13;2.45;;;19.30;95.00;;;;;;4985841;28;20026;-63
2023/07/23 05:37:33;;;;;;;4.78;3.15;;;19.30;95.50;;;;;;4943794;28;20518;-64
2023/07/23 05:39:58;;;;;;;6.68;2.97;;;19.30;95.30;;;;;;4984046;28;20027;-64
2023/07/23 05:42:24;;;;;;;4.90;2.22;;;19.40;95.50;;;;;;4988645;28;20024;-64
2023/07/23 05:44:50;;;;;;;5.47;2.30;;;19.40;95.40;;;;;;4991277;28;20050;-65
2023/07/23 05:47:15;;;;;;;4.70;2.50;;;19.30;95.50;;;;;;4987913;28;20057;-64
2023/07/23 05:49:41;;;;;;;3.22;2.17;;;19.40;95.50;;;;;;4987686;28;20031;-65
2023/07/23 05:52:07;;;;;;;5.25;2.22;;;19.40;95.00;;;;;;4988888;28;20026;-64
2023/07/23 05:54:32;;;;;;;7.30;2.97;;;19.50;95.40;;;;;;4990488;28;20026;-64
2023/07/23 05:56:59;;;;;;;3.10;2.30;;;19.60;95.10;;;;;;4988374;28;20484;-64
2023/07/23 05:59:25;;;;;;;3.38;2.25;;;19.80;94.90;;;;;;4991379;28;20028;-64
2023/07/23 06:01:51;;;;;;;5.90;2.30;;;20.00;94.30;;;;;;4989079;28;20857;-63
2023/07/23 06:04:16;;;;;;;3.47;2.33;;;20.10;94.10;;;;;;4989621;28;20429;-64
2023/07/23 06:06:42;;;;;;;4.75;2.95;;;20.60;93.90;;;;;;4988481;28;20058;-64
2023/07/23 06:09:08;;;;;;;6.20;2.38;;;21.60;93.10;;;;;;4968189;28;20029;-64
2023/07/23 06:11:34;;;;;;;4.97;2.17;;;23.00;90.50;;;;;;4989382;28;20023;-66
2023/07/23 06:14:00;;;;;;;6.57;1.98;;;24.10;87.10;;;;;;4984125;28;20030;-65
2023/07/23 06:16:25;;;;;;;5.07;2.50;;;24.70;85.30;;;;;;4984572;28;20034;-65
2023/07/23 06:18:51;;;;;;;2.72;1.90;;;24.60;83.50;;;;;;4979135;28;20042;-63
2023/07/23 06:21:17;;;;;;;5.10;2.25;;;24.60;82.10;;;;;;4986656;28;20105;-65
2023/07/23 06:23:43;;;;;;;7.40;2.30;;;24.50;82.40;;;;;;4985014;28;20027;-64
2023/07/23 06:26:08;;;;;;;3.90;2.22;;;24.00;81.40;;;;;;4982658;28;20045;-64
2023/07/23 06:28:34;;;;;;;5.43;2.45;;;23.60;83.30;;;;;;4982509;28;20061;-64
2023/07/23 06:31:00;;;;;;;4.18;1.83;;;23.50;84.90;;;;;;4984747;28;20547;-64
2023/07/23 06:33:25;;;;;;;4.63;2.00;;;23.70;84.60;;;;;;4981855;28;20089;-65
2023/07/23 06:35:51;;;;;;;5.78;2.15;;;23.70;84.90;;;;;;4985293;28;20030;-64
2023/07/23 06:38:17;;;;;;;7.32;2.75;;;23.00;83.90;;;;;;4930874;28;20057;-64
2023/07/23 06:40:52;;;;;;;3.38;2.15;;;22.90;85.70;;;;;;4988736;28;20109;-65
2023/07/23 06:43:19;;;;;;;4.57;2.00;;;22.80;86.80;;;;;;4987912;28;20022;-64
2023/07/23 06:45:45;;;;;;;3.90;1.80;;;22.80;87.60;;;;;;4990282;28;20047;-64
2023/07/23 06:48:11;;;;;;;4.03;2.17;;;22.70;87.70;;;;;;4987389;28;20085;-62
2023/07/23 06:50:37;;;;;;;6.90;1.80;;;22.60;87.30;;;;;;4985949;28;20077;-64
2023/07/23 06:53:04;;;;;;;3.05;1.63;;;22.60;88.40;;;;;;4990240;28;20034;-67
2023/07/23 06:55:30;;;;;;;4.03;2.20;;;22.50;88.20;;;;;;4988316;28;20427;-64
2023/07/23 06:57:55;;;;;;;5.22;1.75;;;22.50;88.70;;;;;;4972829;28;20057;-65
2023/07/23 07:00:21;;;;;;;3.85;2.20;;;22.50;88.60;;;;;;4975023;28;20394;-64
2023/07/23 07:02:47;;;;;;;4.03;1.88;;;22.50;88.50;;;;;;4988794;28;20080;-63
2023/07/23 07:05:12;;;;;;;4.13;2.10;;;22.40;89.30;;;;;;4989166;28;20577;-64
2023/07/23 07:07:38;;;;;;;3.38;2.33;;;22.30;88.90;;;;;;4986198;28;20035;-64
2023/07/23 07:10:07;;;;;;;4.72;2.20;;;22.10;90.00;;;;;;4990868;28;20033;-63
2023/07/23 07:12:33;;;;;;;3.05;2.08;;;22.10;89.30;;;;;;4990095;28;20387;-65
2023/07/23 07:14:59;;;;;;;3.08;1.77;;;21.90;89.90;;;;;;4986883;28;20022;-62
2023/07/23 07:17:24;;;;;;;5.43;2.03;;;21.90;90.20;;;;;;4988182;28;20066;-64
2023/07/23 07:19:50;;;;;;;7.60;2.90;;;21.80;90.10;;;;;;4986789;28;20030;-64
2023/07/23 07:22:16;;;;;;;3.50;1.95;;;21.60;91.60;;;;;;4985477;28;20030;-64
2023/07/23 07:24:41;;;;;;;3.88;2.10;;;21.60;92.60;;;;;;4985820;28;20034;-63
2023/07/23 07:27:10;;;;;;;5.43;2.30;;;21.50;92.60;;;;;;4989194;28;20121;-65
2023/07/23 07:29:39;;;;;;;3.63;2.10;;;21.20;94.50;;;;;;4984628;28;20030;-65
2023/07/23 07:32:06;;;;;;;3.45;1.63;;;21.10;96.40;;;;;;4988803;28;20033;-64
2023/07/23 07:34:32;;;;;;;3.00;2.13;;;20.90;97.20;;;;;;4987047;28;20387;-64
2023/07/23 07:36:57;;;;;;;8.10;2.78;;;20.80;96.40;;;;;;4953927;28;20059;-64
2023/07/23 07:39:23;;;;;;;6.55;2.25;;;20.60;98.40;;;;;;4972545;28;20046;-64
2023/07/23 07:41:49;;;;;;;3.75;2.50;;;20.40;99.00;;;;;;4990172;28;20030;-64
2023/07/23 07:44:14;;;;;;;4.50;2.42;;;20.20;99.90;;;;;;4989178;28;20084;-62
2023/07/23 07:46:40;;;;;;;6.25;2.28;;;20.00;99.70;;;;;;4987223;28;20030;-64
2023/07/23 07:49:05;;;;;;;8.82;2.20;;;19.90;99.90;;;;;;4982937;28;20031;-64
2023/07/23 07:51:31;;;;;;;3.47;2.10;;;19.90;99.90;;;;;;4985341;28;20030;-65
2023/07/23 07:53:57;;;;;;;3.97;1.67;;;19.50;98.50;;;;;;4989690;28;20030;-62
2023/07/23 07:56:23;;;;;;;4.60;1.80;;;19.40;99.80;;;;;;4989322;28;20023;-64
2023/07/23 07:58:49;;;;;;;2.78;1.90;;;19.10;99.90;;;;;;4989552;28;20035;-63
2023/07/23 08:01:15;;;;;;;5.40;2.30;;;18.80;99.90;;;;;;4985246;28;20034;-64
2023/07/23 08:03:41;;;;;;;5.55;2.10;;;18.70;99.90;;;;;;4988710;28;20026;-62
2023/07/23 08:06:07;;;;;;;6.85;3.75;;;18.60;99.90;;;;;;4981438;28;20038;-64
2023/07/23 08:08:37;;;;;;;3.03;1.65;;;18.50;99.90;;;;;;4985762;28;20435;-64
2023/07/23 08:11:04;;;;;;;9.23;2.25;;;18.50;99.90;;;;;;4987310;28;20029;-63
2023/07/23 08:13:30;;;;;;;2.65;2.00;;;18.40;99.90;;;;;;4983499;28;20072;-64
2023/07/23 08:15:56;;;;;;;7.88;2.03;;;18.40;99.90;;;;;;4965784;28;20512;-64
2023/07/23 08:18:22;;;;;;;5.03;2.05;;;18.40;99.90;;;;;;4984053;28;20076;-63
2023/07/23 08:20:48;;;;;;;3.35;2.25;;;18.30;99.90;;;;;;4972494;28;20109;-63
2023/07/23 08:23:14;;;;;;;4.57;2.30;;;18.30;99.90;;;;;;4982662;28;20066;-64
2023/07/23 08:25:42;;;;;;;2.47;2.22;;;18.30;99.90;;;;;;4983358;28;20062;-64
2023/07/23 08:28:11;;;;;;;3.63;2.10;;;18.40;99.90;;;;;;4983340;28;20022;-64
2023/07/23 08:30:36;;;;;;;3.85;2.78;;;18.50;99.90;;;;;;4990736;28;20026;-63
2023/07/23 08:33:02;;;;;;;6.72;2.40;;;18.50;99.90;;;;;;4988779;28;20018;-63
2023/07/23 08:35:29;;;;;;;4.70;2.33;;;18.60;99.90;;;;;;4983765;28;20133;-64
2023/07/23 08:37:56;;;;;;;3.30;2.45;;;18.70;99.90;;;;;;4955486;28;20122;-64
2023/07/23 08:40:24;;;;;;;6.35;3.17;;;18.60;99.90;;;;;;4964949;28;20090;-65
2023/07/23 08:42:56;;;;;;;3.55;2.47;;;18.60;99.90;;;;;;4982655;28;20054;-65
2023/07/23 08:46:06;;;;;;;5.70;2.70;;;18.30;99.90;;;;;;4978866;28;20080;-63
2023/07/23 08:48:52;;;;;;;2.83;2.05;;;18.00;99.90;;;;;;4958876;28;20054;-65
2023/07/23 08:51:18;;;;;;;3.95;2.40;;;17.90;99.90;;;;;;4973874;28;20511;-65
2023/07/23 08:53:45;;;;;;;2.67;1.67;;;17.80;99.90;;;;;;4965571;28;20026;-64
2023/07/23 08:56:11;;;;;;;3.38;2.20;;;17.70;99.90;;;;;;4980520;28;20048;-65
2023/07/23 08:58:37;;;;;;;5.43;2.83;;;17.50;99.90;;;;;;4979415;28;20539;-65
2023/07/23 09:01:04;;;;;;;4.97;2.05;;;17.40;99.90;;;;;;4962661;28;20027;-64
2023/07/23 09:03:32;;;;;;;6.60;2.30;;;17.20;99.90;;;;;;4975340;28;20030;-66
2023/07/23 09:05:58;;;;;;;5.70;2.40;;;17.30;99.90;;;;;;4981508;28;20062;-64
2023/07/23 09:08:23;;;;;;;5.95;2.58;;;17.30;99.90;;;;;;4977017;28;20054;-63
2023/07/23 09:10:49;;;;;;;4.72;2.78;;;17.30;99.90;;;;;;4966293;28;20085;-64
2023/07/23 09:13:14;;;;;;;5.88;2.50;;;17.30;99.90;;;;;;4985861;28;20034;-64
2023/07/23 09:15:41;;;;;;;5.32;2.63;;;17.40;99.90;;;;;;4976157;28;20075;-63
2023/07/23 09:18:08;;;;;;;7.18;3.05;;;17.40;99.90;;;;;;4982903;28;20093;-64
2023/07/23 09:20:34;;;;;;;5.53;2.20;;;17.40;99.90;;;;;;4984769;28;20410;-63
2023/07/23 09:23:07;;;;;;;4.22;2.60;;;17.50;99.90;;;;;;4987967;28;20149;-64
2023/07/23 09:25:32;;;;;;;5.00;3.40;;;17.60;99.90;;;;;;4981118;28;20496;-63
2023/07/23 09:27:58;;;;;;;4.40;2.65;;;17.70;99.90;;;;;;4988158;28;20044;-64
2023/07/23 09:30:25;;;;;;;4.13;2.75;;;17.70;99.90;;;;;;4982364;28;20030;-63
2023/07/23 09:33:06;;;;;;;8.95;3.20;;;17.90;99.90;;;;;;4978270;28;20058;-63
2023/07/23 09:35:31;;;;;;;3.55;2.30;;;17.90;99.90;;;;;;4990243;28;20101;-65
2023/07/23 09:37:59;;;;;;;3.60;2.20;;;18.00;99.90;;;;;;4967141;28;20126;-68
2023/07/23 09:40:39;;;;;;;4.20;3.00;;;18.00;99.90;;;;;;4955345;28;20050;-64
2023/07/23 09:43:05;;;;;;;4.55;3.00;;;18.30;99.90;;;;;;4969841;28;20096;-64
2023/07/23 09:45:36;;;;;;;4.53;2.58;;;18.50;99.90;;;;;;4991781;28;20476;-65
2023/07/23 09:48:02;;;;;;;4.63;2.50;;;18.60;99.90;;;;;;4990626;28;20018;-63
2023/07/23 09:50:28;;;;;;;3.75;2.22;;;18.90;99.90;;;;;;4970406;28;20027;-63
2023/07/23 09:52:53;;;;;;;3.42;2.42;;;18.80;99.90;;;;;;4989991;28;20023;-64
2023/07/23 09:55:23;;;;;;;4.65;2.40;;;18.90;99.90;;;;;;4990227;28;20038;-64
2023/07/23 09:57:50;;;;;;;5.07;2.35;;;18.80;99.90;;;;;;4989834;28;20034;-64
2023/07/23 10:00:17;;;;;;;6.25;2.53;;;18.80;99.90;;;;;;4965323;28;20034;-62
2023/07/23 10:02:45;;;;;;;4.82;3.33;;;18.80;99.90;;;;;;4986841;28;20499;-65
2023/07/23 10:05:13;;;;;;;6.53;2.60;;;18.90;99.90;;;;;;4985464;28;20104;-63
2023/07/23 10:07:39;;;;;;;4.80;3.17;;;19.00;99.90;;;;;;4980130;28;20045;-63
2023/07/23 10:10:08;;;;;;;3.88;2.50;;;19.20;99.90;;;;;;4983454;28;20026;-64
2023/07/23 10:12:34;;;;;;;3.15;2.35;;;19.40;99.90;;;;;;4977872;28;20511;-61
2023/07/23 10:14:59;;;;;;;3.53;2.45;;;19.50;99.90;;;;;;4983961;28;20034;-65
2023/07/23 10:17:28;;;;;;;6.35;2.83;;;19.30;99.90;;;;;;4989014;28;20038;-65
2023/07/23 10:19:56;;;;;;;3.05;2.08;;;19.10;99.90;;;;;;4982493;28;20052;-64
2023/07/23 10:22:23;;;;;;;4.43;2.95;;;18.90;99.90;;;;;;4986240;28;20404;-65
2023/07/23 10:24:52;;;;;;;5.80;2.60;;;18.80;99.90;;;;;;4987781;28;20392;-62
2023/07/23 10:27:18;;;;;;;4.50;3.25;;;18.60;99.90;;;;;;4984657;28;20045;-63
2023/07/23 10:30:19;;;;;;;4.80;3.03;;;18.60;99.90;;;;;;4976481;28;20540;-63
2023/07/23 10:32:47;;;;;;;5.05;2.85;;;18.50;99.90;;;;;;4987654;28;20029;-62
2023/07/23 10:35:12;;;;;;;5.45;3.47;;;18.40;99.90;;;;;;4990653;28;20030;-63
2023/07/23 10:37:38;;;;;;;5.70;2.60;;;18.30;99.90;;;;;;4970618;28;20023;-66
2023/07/23 10:40:05;;;;;;;4.20;2.72;;;18.30;99.90;;;;;;4986958;28;20547;-64
2023/07/23 10:42:41;;;;;;;4.53;2.70;;;18.30;99.90;;;;;;4990926;28;20058;-63
2023/07/23 10:45:22;;;;;;;5.25;3.22;;;18.30;99.90;;;;;;4990675;28;20058;-62
2023/07/23 10:47:58;;;;;;;5.90;3.65;;;18.40;99.90;;;;;;4983825;28;20030;-64
2023/07/23 10:50:27;;;;;;;4.63;2.67;;;18.60;99.90;;;;;;4991186;28;20023;-62
2023/07/23 10:53:03;;;;;;;6.43;3.05;;;18.70;99.90;;;;;;4986290;28;20034;-64
2023/07/23 10:55:34;;;;;;;5.60;3.05;;;18.70;99.90;;;;;;4976101;28;20598;-63
2023/07/23 10:58:09;;;;;;;5.40;2.65;;;18.80;99.90;;;;;;4983328;28;20030;-63
2023/07/23 11:00:40;;;;;;;5.43;2.78;;;19.10;99.90;;;;;;4978814;28;20039;-63
2023/07/23 11:03:12;;;;;;;5.22;2.75;;;19.00;99.90;;;;;;4987897;28;20081;-63
2023/07/23 11:05:42;;;;;;;6.50;2.80;;;19.00;99.90;;;;;;4981329;28;20569;-64
2023/07/23 11:08:23;;;;;;;5.25;3.20;;;19.00;99.90;;;;;;4968785;28;20034;-63
2023/07/23 11:10:58;;;;;;;4.30;2.40;;;19.10;99.90;;;;;;4987770;28;20030;-62
2023/07/23 11:13:25;;;;;;;4.78;2.35;;;19.10;99.90;;;;;;4974550;28;20026;-63
2023/07/23 11:15:51;;;;;;;4.85;2.75;;;19.10;99.90;;;;;;4984951;28;20027;-62
2023/07/23 11:18:18;;;;;;;6.60;2.70;;;19.20;99.90;;;;;;4983275;28;21042;-61
2023/07/23 11:20:46;;;;;;;10.30;3.00;;;19.10;99.90;;;;;;4965057;28;20050;-62
2023/07/23 11:23:12;;;;;;;3.92;2.95;;;19.00;99.90;;;;;;4982176;28;20033;-63
2023/07/23 11:25:39;;;;;;;7.30;3.10;;;19.10;99.90;;;;;;4961544;28;20022;-63
2023/07/23 11:28:05;;;;;;;4.30;2.28;;;19.10;99.90;;;;;;4979308;28;20070;-63
2023/07/23 11:30:31;;;;;;;5.88;2.53;;;19.20;99.90;;;;;;4977373;28;20172;-63
2023/07/23 11:32:59;;;;;;;4.45;2.45;;;19.00;99.90;;;;;;4982501;28;20524;-63
2023/07/23 11:35:25;;;;;;;3.40;2.45;;;19.10;99.90;;;;;;4979043;28;20033;-62
2023/07/23 11:37:50;;;;;;;5.53;2.42;;;19.20;99.90;;;;;;4961810;28;20023;-63
2023/07/23 11:40:23;;;;;;;3.40;2.40;;;19.20;99.90;;;;;;4980347;28;20045;-62
2023/07/23 11:42:51;;;;;;;3.23;2.10;;;19.20;99.90;;;;;;4969025;28;20054;-63
2023/07/23 11:45:17;;;;;;;4.72;2.47;;;19.30;99.90;;;;;;4982546;28;20277;-63
2023/07/23 11:47:50;;;;;;;3.13;2.20;;;19.40;99.90;;;;;;4988695;28;20037;-63
2023/07/23 11:50:16;;;;;;;4.60;2.35;;;19.40;99.90;;;;;;4990186;28;20027;-62
2023/07/23 11:52:42;;;;;;;3.15;1.92;;;19.60;99.90;;;;;;4978061;28;20037;-62
2023/07/23 11:55:26;;;;;;;2.72;1.63;;;19.60;99.90;;;;;;4990287;28;20026;-62
2023/07/23 11:57:56;;;;;;;2.30;1.90;;;19.60;99.90;;;;;;4988825;28;20034;-63
2023/07/23 12:00:37;;;;;;;3.05;2.10;;;19.60;99.90;;;;;;4989890;28;20113;-62
2023/07/23 12:03:07;;;;;;;2.85;2.13;;;19.70;99.90;;;;;;4989965;28;20034;-63
2023/07/23 12:05:33;;;;;;;4.75;1.70;;;19.90;99.90;;;;;;4981135;28;20076;-63
2023/07/23 12:07:59;;;;;;;3.00;2.10;;;20.00;99.90;;;;;;4981306;28;20030;-62
2023/07/23 12:10:28;;;;;;;3.38;2.10;;;20.20;99.90;;;;;;4980958;28;20041;-63
2023/07/23 12:12:54;;;;;;;3.47;2.10;;;20.40;99.90;;;;;;4979142;28;20129;-63
2023/07/23 12:15:19;;;;;;;3.60;2.15;;;20.60;99.90;;;;;;4984123;28;20069;-62
2023/07/23 12:17:45;;;;;;;3.22;2.00;;;20.50;99.90;;;;;;4983318;28;20452;-64
2023/07/23 12:20:16;;;;;;;4.35;1.90;;;20.50;99.90;;;;;;4979258;28;20038;-64
2023/07/23 12:22:49;;;;;;;8.57;2.58;;;20.50;99.90;;;;;;4982194;28;20680;-62
2023/07/23 12:25:15;;;;;;;3.37;2.13;;;20.50;99.90;;;;;;4979704;28;20057;-63
2023/07/23 12:27:40;;;;;;;8.55;2.10;;;20.50;99.90;;;;;;4979157;28;20763;-63
2023/07/23 12:30:06;;;;;;;3.35;1.98;;;20.60;99.90;;;;;;4979630;28;20033;-64
2023/07/23 12:32:34;;;;;;;4.03;1.90;;;20.80;99.90;;;;;;4978638;28;20027;-62
2023/07/23 12:34:59;;;;;;;3.28;2.25;;;20.80;99.90;;;;;;4980360;28;20022;-62
2023/07/23 12:37:25;;;;;;;6.20;2.78;;;20.60;99.90;;;;;;4979944;28;20439;-64
2023/07/23 12:39:53;;;;;;;2.70;1.90;;;20.50;99.90;;;;;;4943752;28;20049;-64
2023/07/23 12:42:19;;;;;;;5.35;2.30;;;20.50;99.90;;;;;;4978148;28;20801;-63
2023/07/23 12:44:45;;;;;;;2.65;1.98;;;20.50;99.90;;;;;;4979705;28;20034;-64